createdAt,value
2019-04-16T00:00:49.933Z,7.14
2019-04-16T00:01:49.915Z,7.13
2019-04-16T00:02:51.384Z,7.10
2019-04-16T00:03:53.689Z,7.07
2019-04-16T00:04:49.882Z,7.05
2019-04-16T00:05:49.902Z,7.04
2019-04-16T00:06:49.872Z,7.03
2019-04-16T00:07:49.835Z,7.01
2019-04-16T00:08:49.828Z,7.03
2019-04-16T00:09:49.817Z,7.03
2019-04-16T00:10:49.843Z,7.00
2019-04-16T00:11:49.783Z,6.97
2019-04-16T00:12:49.784Z,6.92
2019-04-16T00:13:49.759Z,6.87
2019-04-16T00:14:49.760Z,6.83
2019-04-16T00:15:49.782Z,6.78
2019-04-16T00:16:49.739Z,6.75
2019-04-16T00:17:49.732Z,6.71
2019-04-16T00:18:57.363Z,6.71
2019-04-16T00:19:50.705Z,6.68
2019-04-16T00:20:49.734Z,6.68
2019-04-16T00:21:49.687Z,6.65
2019-04-16T00:22:49.680Z,6.64
2019-04-16T00:23:49.660Z,6.56
2019-04-16T00:24:49.656Z,6.52
2019-04-16T00:25:52.031Z,6.50
2019-04-16T00:26:50.623Z,6.46
2019-04-16T00:27:49.621Z,6.43
2019-04-16T00:28:49.602Z,6.47
2019-04-16T00:29:49.622Z,6.52
2019-04-16T00:30:49.604Z,6.50
2019-04-16T00:31:49.580Z,6.53
2019-04-16T00:32:49.564Z,6.56
2019-04-16T00:33:49.551Z,6.56
2019-04-16T00:34:49.542Z,6.57
2019-04-16T00:35:49.572Z,6.54
2019-04-16T00:36:49.519Z,6.50
2019-04-16T00:37:51.641Z,6.49
2019-04-16T00:38:53.926Z,6.47
2019-04-16T00:39:50.491Z,6.39
2019-04-16T00:40:49.486Z,6.36
2019-04-16T00:41:49.447Z,6.34
2019-04-16T00:42:49.457Z,6.35
2019-04-16T00:43:49.439Z,6.32
2019-04-16T00:44:49.435Z,6.29
2019-04-16T00:45:49.436Z,6.29
2019-04-16T00:46:49.406Z,6.26
2019-04-16T00:47:51.445Z,6.25
2019-04-16T00:48:49.390Z,6.20
2019-04-16T00:49:49.396Z,6.19
2019-04-16T00:50:49.402Z,6.20
2019-04-16T00:51:49.359Z,6.26
2019-04-16T00:52:49.354Z,6.29
2019-04-16T00:53:49.331Z,6.29
2019-04-16T00:54:49.335Z,6.28
2019-04-16T00:55:49.326Z,6.22
2019-04-16T00:56:49.304Z,6.20
2019-04-16T00:57:49.323Z,6.20
2019-04-16T00:58:51.756Z,6.16
2019-04-16T00:59:49.276Z,6.17
2019-04-16T01:00:49.281Z,6.20
2019-04-16T01:01:49.260Z,6.28
2019-04-16T01:02:49.242Z,6.35
2019-04-16T01:03:49.221Z,6.39
2019-04-16T01:04:49.214Z,6.41
2019-04-16T01:05:49.232Z,6.41
2019-04-16T01:06:49.199Z,6.41
2019-04-16T01:07:49.183Z,6.39
2019-04-16T01:08:54.820Z,6.36
2019-04-16T01:09:50.177Z,6.35
2019-04-16T01:10:49.182Z,6.34
2019-04-16T01:11:49.766Z,6.32
2019-04-16T01:12:49.133Z,6.35
2019-04-16T01:13:49.185Z,6.35
2019-04-16T01:14:49.101Z,6.38
2019-04-16T01:15:49.134Z,6.49
2019-04-16T01:16:49.079Z,6.50
2019-04-16T01:17:49.072Z,6.50
2019-04-16T01:18:49.061Z,6.50
2019-04-16T01:19:49.059Z,6.59
2019-04-16T01:20:49.109Z,6.68
2019-04-16T01:21:49.046Z,6.70
2019-04-16T01:22:49.046Z,6.70
2019-04-16T01:23:49.614Z,6.74
2019-04-16T01:24:51.558Z,6.71
2019-04-16T01:25:49.034Z,6.72
2019-04-16T01:26:49.011Z,6.77
2019-04-16T01:27:48.970Z,6.80
2019-04-16T01:28:48.988Z,6.80
2019-04-16T01:29:48.962Z,6.87
2019-04-16T01:30:48.938Z,7.03
2019-04-16T01:31:48.960Z,7.14
2019-04-16T01:32:48.927Z,7.19
2019-04-16T01:33:48.903Z,7.15
2019-04-16T01:34:48.893Z,7.19
2019-04-16T01:35:51.597Z,7.21
2019-04-16T01:36:51.340Z,7.18
2019-04-16T01:37:49.869Z,7.18
2019-04-16T01:38:48.829Z,7.15
2019-04-16T01:39:48.840Z,7.19
2019-04-16T01:40:50.211Z,7.19
2019-04-16T01:41:50.340Z,7.19
2019-04-16T01:42:48.820Z,7.21
2019-04-16T01:43:48.819Z,7.19
2019-04-16T01:44:48.764Z,7.14
2019-04-16T01:45:48.770Z,7.08
2019-04-16T01:46:48.781Z,7.03
2019-04-16T01:47:48.749Z,6.97
2019-04-16T01:48:48.731Z,7.00
2019-04-16T01:49:48.709Z,6.96
2019-04-16T01:50:48.710Z,6.95
2019-04-16T01:51:48.737Z,6.95
2019-04-16T01:52:50.305Z,7.00
2019-04-16T01:53:49.434Z,7.04
2019-04-16T01:54:51.331Z,7.15
2019-04-16T01:55:49.639Z,7.18
2019-04-16T01:56:48.664Z,7.18
2019-04-16T01:57:48.633Z,7.19
2019-04-16T01:58:48.619Z,7.25
2019-04-16T01:59:48.610Z,7.32
2019-04-16T02:00:48.617Z,7.40
2019-04-16T02:01:48.624Z,7.44
2019-04-16T02:02:48.594Z,7.44
2019-04-16T02:03:49.525Z,7.39
2019-04-16T02:04:52.021Z,7.32
2019-04-16T02:05:48.535Z,7.26
2019-04-16T02:06:48.574Z,7.19
2019-04-16T02:07:48.521Z,7.10
2019-04-16T02:08:48.515Z,7.00
2019-04-16T02:09:48.507Z,6.90
2019-04-16T02:10:48.506Z,6.80
2019-04-16T02:11:48.524Z,6.72
2019-04-16T02:12:48.459Z,6.64
2019-04-16T02:13:48.466Z,6.53
2019-04-16T02:14:50.305Z,6.46
2019-04-16T02:15:52.963Z,6.39
2019-04-16T02:16:48.466Z,6.32
2019-04-16T02:17:48.415Z,6.25
2019-04-16T02:18:48.407Z,6.15
2019-04-16T02:19:48.396Z,6.09
2019-04-16T02:20:48.394Z,6.05
2019-04-16T02:21:48.395Z,6.02
2019-04-16T02:22:48.356Z,5.99
2019-04-16T02:23:48.802Z,5.98
2019-04-16T02:24:48.683Z,5.95
2019-04-16T02:25:48.532Z,5.91
2019-04-16T02:26:48.332Z,5.88
2019-04-16T02:27:48.307Z,5.88
2019-04-16T02:28:48.322Z,5.84
2019-04-16T02:29:48.348Z,5.81
2019-04-16T02:30:48.262Z,5.80
2019-04-16T02:31:51.551Z,5.74
2019-04-16T02:32:48.257Z,5.69
2019-04-16T02:33:48.256Z,5.65
2019-04-16T02:34:48.252Z,5.62
2019-04-16T02:35:48.232Z,5.61
2019-04-16T02:36:48.221Z,5.58
2019-04-16T02:37:48.225Z,5.59
2019-04-16T02:38:53.320Z,5.61
2019-04-16T02:39:49.655Z,5.58
2019-04-16T02:40:52.834Z,5.55
2019-04-16T02:41:49.184Z,5.54
2019-04-16T02:42:48.172Z,5.52
2019-04-16T02:43:48.138Z,5.51
2019-04-16T02:44:49.848Z,5.51
2019-04-16T02:45:48.131Z,5.51
2019-04-16T02:46:48.112Z,5.51
2019-04-16T02:47:48.116Z,5.46
2019-04-16T02:48:51.351Z,5.41
2019-04-16T02:49:48.069Z,5.38
2019-04-16T02:50:48.074Z,5.36
2019-04-16T02:51:48.065Z,5.40
2019-04-16T02:52:51.086Z,5.38
2019-04-16T02:53:48.029Z,5.37
2019-04-16T02:54:48.019Z,5.38
2019-04-16T02:55:48.040Z,5.38
2019-04-16T02:56:51.576Z,5.37
2019-04-16T02:57:48.020Z,5.36
2019-04-16T02:58:47.985Z,5.56
2019-04-16T02:59:48.025Z,5.87
2019-04-16T03:00:50.418Z,5.97
2019-04-16T03:01:49.351Z,6.16
2019-04-16T03:02:47.961Z,6.32
2019-04-16T03:03:47.922Z,6.43
2019-04-16T03:04:47.917Z,6.53
2019-04-16T03:05:47.924Z,6.71
2019-04-16T03:06:47.889Z,6.89
2019-04-16T03:07:47.887Z,7.05
2019-04-16T03:08:47.883Z,7.18
2019-04-16T03:10:00.578Z,7.26
2019-04-16T03:10:48.887Z,7.26
2019-04-16T03:11:48.955Z,7.29
2019-04-16T03:12:51.895Z,7.36
2019-04-16T03:13:48.825Z,7.47
2019-04-16T03:14:47.815Z,7.53
2019-04-16T03:15:47.845Z,7.56
2019-04-16T03:16:47.790Z,7.58
2019-04-16T03:17:47.784Z,7.70
2019-04-16T03:18:48.387Z,7.74
2019-04-16T03:19:51.053Z,7.78
2019-04-16T03:20:47.742Z,7.80
2019-04-16T03:21:47.759Z,7.78
2019-04-16T03:22:47.725Z,7.78
2019-04-16T03:23:47.719Z,7.80
2019-04-16T03:24:47.704Z,7.78
2019-04-16T03:25:47.693Z,7.77
2019-04-16T03:26:50.505Z,7.74
2019-04-16T03:27:47.660Z,7.74
2019-04-16T03:28:47.656Z,7.72
2019-04-16T03:29:47.640Z,7.69
2019-04-16T03:30:47.657Z,7.70
2019-04-16T03:31:47.660Z,7.69
2019-04-16T03:32:47.602Z,7.67
2019-04-16T03:33:50.433Z,7.69
2019-04-16T03:34:50.434Z,7.69
2019-04-16T03:35:48.585Z,7.66
2019-04-16T03:36:47.590Z,7.64
2019-04-16T03:37:47.567Z,7.61
2019-04-16T03:38:47.569Z,7.58
2019-04-16T03:39:47.538Z,7.51
2019-04-16T03:40:47.530Z,7.50
2019-04-16T03:41:47.547Z,7.50
2019-04-16T03:42:47.507Z,7.48
2019-04-16T03:43:47.496Z,7.46
2019-04-16T03:44:47.484Z,7.41
2019-04-16T03:45:47.467Z,7.44
2019-04-16T03:46:47.755Z,7.44
2019-04-16T03:47:50.992Z,7.50
2019-04-16T03:48:47.470Z,7.53
2019-04-16T03:49:47.426Z,7.50
2019-04-16T03:50:47.421Z,7.50
2019-04-16T03:51:47.416Z,7.51
2019-04-16T03:52:47.398Z,7.48
2019-04-16T03:53:49.544Z,7.43
2019-04-16T03:54:47.385Z,7.37
2019-04-16T03:55:47.358Z,7.36
2019-04-16T03:56:47.393Z,7.36
2019-04-16T03:57:47.346Z,7.40
2019-04-16T03:58:47.334Z,7.39
2019-04-16T03:59:47.317Z,7.33
2019-04-16T04:00:47.315Z,7.31
2019-04-16T04:01:47.304Z,7.36
2019-04-16T04:02:47.296Z,7.40
2019-04-16T04:03:47.286Z,7.43
2019-04-16T04:04:47.256Z,7.44
2019-04-16T04:05:47.246Z,7.40
2019-04-16T04:06:47.253Z,7.33
2019-04-16T04:07:47.236Z,7.26
2019-04-16T04:08:48.246Z,7.21
2019-04-16T04:09:47.222Z,7.18
2019-04-16T04:10:47.194Z,7.11
2019-04-16T04:11:47.256Z,7.07
2019-04-16T04:12:47.159Z,7.11
2019-04-16T04:13:49.979Z,7.13
2019-04-16T04:14:47.153Z,7.18
2019-04-16T04:15:47.142Z,7.23
2019-04-16T04:16:47.132Z,7.22
2019-04-16T04:17:47.139Z,7.19
2019-04-16T04:18:47.102Z,7.18
2019-04-16T04:19:47.110Z,7.14
2019-04-16T04:20:49.649Z,7.14
2019-04-16T04:21:47.078Z,7.08
2019-04-16T04:22:47.082Z,7.04
2019-04-16T04:23:47.044Z,7.01
2019-04-16T04:24:47.032Z,7.01
2019-04-16T04:25:47.048Z,7.08
2019-04-16T04:26:47.009Z,7.21
2019-04-16T04:27:47.727Z,7.26
2019-04-16T04:28:48.567Z,7.26
2019-04-16T04:29:46.989Z,7.29
2019-04-16T04:30:48.706Z,7.41
2019-04-16T04:31:46.953Z,7.44
2019-04-16T04:32:47.632Z,7.41
2019-04-16T04:33:46.950Z,7.33
2019-04-16T04:34:48.833Z,7.31
2019-04-16T04:35:46.934Z,7.31
2019-04-16T04:36:46.930Z,7.32
2019-04-16T04:37:46.930Z,7.32
2019-04-16T04:38:46.888Z,7.39
2019-04-16T04:39:46.878Z,7.40
2019-04-16T04:40:50.414Z,7.43
2019-04-16T04:41:46.859Z,7.50
2019-04-16T04:42:46.869Z,7.51
2019-04-16T04:43:46.834Z,7.55
2019-04-16T04:44:47.215Z,7.61
2019-04-16T04:45:46.810Z,7.67
2019-04-16T04:46:47.086Z,7.67
2019-04-16T04:47:51.368Z,7.67
2019-04-16T04:48:46.778Z,7.69
2019-04-16T04:49:46.806Z,7.70
2019-04-16T04:50:46.773Z,7.72
2019-04-16T04:51:46.753Z,7.70
2019-04-16T04:52:46.928Z,7.72
2019-04-16T04:53:47.604Z,7.74
2019-04-16T04:54:46.722Z,7.75
2019-04-16T04:55:46.740Z,7.81
2019-04-16T04:56:46.691Z,7.83
2019-04-16T04:57:46.721Z,7.81
2019-04-16T04:58:46.666Z,7.85
2019-04-16T04:59:46.666Z,7.88
2019-04-16T05:00:46.637Z,7.95
2019-04-16T05:01:46.629Z,7.98
2019-04-16T05:02:46.662Z,8.02
2019-04-16T05:03:47.298Z,8.05
2019-04-16T05:04:46.634Z,8.09
2019-04-16T05:05:46.616Z,8.09
2019-04-16T05:06:46.593Z,8.11
2019-04-16T05:07:47.405Z,8.08
2019-04-16T05:08:46.587Z,8.13
2019-04-16T05:09:46.557Z,8.17
2019-04-16T05:10:58.354Z,8.31
2019-04-16T05:11:49.492Z,8.45
2019-04-16T05:12:46.556Z,8.64
2019-04-16T05:13:46.506Z,8.89
2019-04-16T05:14:46.516Z,9.09
2019-04-16T05:15:46.510Z,9.56
2019-04-16T05:16:46.484Z,10.03
2019-04-16T05:17:46.463Z,10.59
2019-04-16T05:18:46.516Z,11.08
2019-04-16T05:19:46.450Z,11.53
2019-04-16T05:20:47.105Z,11.71
2019-04-16T05:21:49.617Z,11.71
2019-04-16T05:22:46.422Z,11.71
2019-04-16T05:23:46.430Z,11.52
2019-04-16T05:24:46.385Z,11.65
2019-04-16T05:25:46.372Z,11.59
2019-04-16T05:26:46.365Z,11.83
2019-04-16T05:27:46.352Z,12.17
2019-04-16T05:28:46.373Z,12.35
2019-04-16T05:29:48.808Z,12.68
2019-04-16T05:30:46.324Z,12.91
2019-04-16T05:31:46.335Z,13.54
2019-04-16T05:32:46.309Z,13.91
2019-04-16T05:33:46.336Z,14.00
2019-04-16T05:34:46.263Z,14.11
2019-04-16T05:35:46.275Z,14.53
2019-04-16T05:36:47.849Z,14.36
2019-04-16T05:37:48.583Z,14.05
2019-04-16T05:38:47.242Z,14.20
2019-04-16T05:39:46.223Z,14.48
2019-04-16T05:40:46.217Z,14.43
2019-04-16T05:41:46.216Z,14.43
2019-04-16T05:42:46.198Z,14.44
2019-04-16T05:43:46.203Z,14.34
2019-04-16T05:44:46.179Z,14.11
2019-04-16T05:45:46.157Z,14.08
2019-04-16T05:46:46.807Z,14.03
2019-04-16T05:47:48.784Z,14.33
2019-04-16T05:48:46.147Z,14.66
2019-04-16T05:49:46.103Z,15.17
2019-04-16T05:50:46.106Z,15.22
2019-04-16T05:51:46.136Z,14.81
2019-04-16T05:52:46.077Z,14.79
2019-04-16T05:53:46.093Z,14.63
2019-04-16T05:54:46.072Z,14.89
2019-04-16T05:55:49.682Z,15.18
2019-04-16T05:56:46.068Z,15.32
2019-04-16T05:57:46.056Z,15.12
2019-04-16T05:58:46.019Z,15.17
2019-04-16T05:59:46.010Z,15.05
2019-04-16T06:00:45.998Z,15.55
2019-04-16T06:01:46.191Z,15.66
2019-04-16T06:02:49.687Z,15.72
2019-04-16T06:03:45.964Z,16.00
2019-04-16T06:04:45.963Z,15.62
2019-04-16T06:05:45.943Z,15.36
2019-04-16T06:06:45.945Z,15.67
2019-04-16T06:07:45.953Z,15.96
2019-04-16T06:08:45.920Z,15.57
2019-04-16T06:09:45.893Z,15.67
2019-04-16T06:10:49.693Z,16.02
2019-04-16T06:11:46.896Z,15.87
2019-04-16T06:12:45.894Z,15.80
2019-04-16T06:13:45.886Z,16.21
2019-04-16T06:14:46.546Z,16.57
2019-04-16T06:15:45.875Z,16.31
2019-04-16T06:16:45.826Z,15.98
2019-04-16T06:17:45.856Z,15.72
2019-04-16T06:18:45.816Z,16.09
2019-04-16T06:19:46.794Z,16.62
2019-04-16T06:20:45.794Z,17.12
2019-04-16T06:21:45.791Z,17.32
2019-04-16T06:22:45.780Z,16.99
2019-04-16T06:23:48.260Z,16.36
2019-04-16T06:24:45.772Z,16.80
2019-04-16T06:25:45.756Z,16.89
2019-04-16T06:26:47.350Z,16.95
2019-04-16T06:27:45.811Z,17.54
2019-04-16T06:28:45.719Z,17.23
2019-04-16T06:29:47.096Z,16.73
2019-04-16T06:30:45.698Z,16.99
2019-04-16T06:31:45.670Z,17.86
2019-04-16T06:32:45.656Z,17.97
2019-04-16T06:33:45.706Z,17.56
2019-04-16T06:34:45.659Z,17.73
2019-04-16T06:35:45.647Z,17.39
2019-04-16T06:36:45.640Z,17.09
2019-04-16T06:37:45.863Z,17.56
2019-04-16T06:38:45.647Z,18.30
2019-04-16T06:39:45.591Z,18.52
2019-04-16T06:40:45.580Z,19.05
2019-04-16T06:41:48.355Z,19.11
2019-04-16T06:42:45.569Z,19.39
2019-04-16T06:43:45.578Z,19.17
2019-04-16T06:44:45.537Z,18.98
2019-04-16T06:45:45.532Z,18.58
2019-04-16T06:46:45.526Z,18.39
2019-04-16T06:47:45.503Z,18.53
2019-04-16T06:48:45.990Z,18.31
2019-04-16T06:49:48.179Z,18.30
2019-04-16T06:50:46.515Z,18.37
2019-04-16T06:51:45.483Z,18.06
2019-04-16T06:52:46.164Z,17.05
2019-04-16T06:53:45.479Z,17.07
2019-04-16T06:54:45.726Z,17.87
2019-04-16T06:55:45.452Z,18.55
2019-04-16T06:56:45.431Z,18.13
2019-04-16T06:57:45.417Z,17.79
2019-04-16T06:58:51.373Z,18.06
2019-04-16T06:59:46.408Z,17.78
2019-04-16T07:00:45.386Z,17.84
2019-04-16T07:01:45.398Z,18.43
2019-04-16T07:03:01.315Z,18.74
2019-04-16T07:03:46.385Z,18.36
2019-04-16T07:04:45.349Z,18.11
2019-04-16T07:05:45.336Z,17.90
2019-04-16T07:06:45.372Z,18.39
2019-04-16T07:07:46.803Z,18.60
2019-04-16T07:08:49.818Z,18.08
2019-04-16T07:09:46.312Z,18.66
2019-04-16T07:10:45.304Z,19.22
2019-04-16T07:11:54.428Z,18.98
2019-04-16T07:12:46.338Z,18.57
2019-04-16T07:13:45.319Z,19.15
2019-04-16T07:14:45.563Z,19.44
2019-04-16T07:15:45.241Z,19.37
2019-04-16T07:16:45.300Z,19.17
2019-04-16T07:17:45.223Z,19.23
2019-04-16T07:18:45.229Z,19.82
2019-04-16T07:19:45.200Z,19.72
2019-04-16T07:20:45.874Z,19.26
2019-04-16T07:21:48.642Z,19.17
2019-04-16T07:22:45.175Z,19.39
2019-04-16T07:23:46.437Z,19.22
2019-04-16T07:24:45.159Z,20.00
2019-04-16T07:25:45.704Z,20.36
2019-04-16T07:26:47.832Z,19.99
2019-04-16T07:27:45.252Z,20.02
2019-04-16T07:28:45.215Z,20.40
2019-04-16T07:29:46.630Z,20.88
2019-04-16T07:30:45.143Z,20.64
2019-04-16T07:31:45.092Z,20.92
2019-04-16T07:32:45.100Z,21.19
2019-04-16T07:33:45.070Z,21.14
2019-04-16T07:34:45.072Z,22.14
2019-04-16T07:35:45.044Z,22.68
2019-04-16T07:36:45.079Z,21.97
2019-04-16T07:37:45.038Z,22.08
2019-04-16T07:38:45.034Z,21.40
2019-04-16T07:39:46.440Z,21.40
2019-04-16T07:40:45.029Z,20.98
2019-04-16T07:41:45.031Z,20.17
2019-04-16T07:42:51.618Z,19.12
2019-04-16T07:43:45.989Z,18.09
2019-04-16T07:44:44.982Z,17.60
2019-04-16T07:45:44.948Z,17.31
2019-04-16T07:46:47.098Z,16.92
2019-04-16T07:47:44.939Z,17.20
2019-04-16T07:48:44.904Z,17.35
2019-04-16T07:49:44.910Z,17.60
2019-04-16T07:50:44.904Z,17.75
2019-04-16T07:51:44.887Z,17.57
2019-04-16T07:52:44.927Z,17.23
2019-04-16T07:53:47.404Z,17.38
2019-04-16T07:54:44.861Z,17.14
2019-04-16T07:55:44.851Z,18.03
2019-04-16T07:56:44.854Z,19.04
2019-04-16T07:57:44.850Z,20.30
2019-04-16T07:58:44.818Z,21.11
2019-04-16T07:59:44.830Z,20.78
2019-04-16T08:00:44.813Z,20.75
2019-04-16T08:01:47.770Z,20.55
2019-04-16T08:02:44.805Z,20.19
2019-04-16T08:03:44.755Z,19.30
2019-04-16T08:04:44.770Z,18.79
2019-04-16T08:05:44.775Z,18.98
2019-04-16T08:06:47.154Z,19.09
2019-04-16T08:07:44.774Z,19.42
2019-04-16T08:08:44.710Z,19.35
2019-04-16T08:09:44.732Z,19.05
2019-04-16T08:10:44.707Z,19.22
2019-04-16T08:11:44.697Z,19.85
2019-04-16T08:12:44.715Z,20.19
2019-04-16T08:13:44.682Z,19.48
2019-04-16T08:14:44.687Z,19.47
2019-04-16T08:15:44.662Z,19.30
2019-04-16T08:16:47.660Z,18.88
2019-04-16T08:17:44.645Z,18.98
2019-04-16T08:18:44.637Z,19.34
2019-04-16T08:19:48.032Z,19.45
2019-04-16T08:20:44.586Z,20.10
2019-04-16T08:21:44.700Z,20.42
2019-04-16T08:22:47.186Z,20.70
2019-04-16T08:23:44.567Z,20.52
2019-04-16T08:24:44.572Z,19.90
2019-04-16T08:25:44.539Z,20.55
2019-04-16T08:26:45.384Z,20.88
2019-04-16T08:27:47.092Z,21.38
2019-04-16T08:28:44.521Z,22.03
2019-04-16T08:29:44.501Z,22.49
2019-04-16T08:30:44.490Z,22.40
2019-04-16T08:31:44.905Z,21.60
2019-04-16T08:32:45.858Z,21.85
2019-04-16T08:33:44.490Z,22.38
2019-04-16T08:34:44.477Z,22.37
2019-04-16T08:35:44.482Z,22.36
2019-04-16T08:36:44.428Z,22.83
2019-04-16T08:37:49.237Z,22.91
2019-04-16T08:38:45.411Z,22.70
2019-04-16T08:39:44.429Z,21.94
2019-04-16T08:40:46.232Z,21.97
2019-04-16T08:41:44.384Z,21.80
2019-04-16T08:42:45.102Z,21.89
2019-04-16T08:43:44.362Z,21.50
2019-04-16T08:44:44.357Z,21.54
2019-04-16T08:45:44.334Z,21.70
2019-04-16T08:46:44.312Z,21.48
2019-04-16T08:47:44.902Z,21.43
2019-04-16T08:48:48.955Z,22.10
2019-04-16T08:49:45.324Z,21.47
2019-04-16T08:50:44.293Z,20.64
2019-04-16T08:51:44.300Z,20.34
2019-04-16T08:52:44.297Z,20.56
2019-04-16T08:53:46.707Z,21.01
2019-04-16T08:54:44.255Z,21.54
2019-04-16T08:55:44.245Z,21.83
2019-04-16T08:56:44.260Z,22.12
2019-04-16T08:57:46.808Z,22.31
2019-04-16T08:58:44.220Z,22.21
2019-04-16T08:59:44.193Z,22.23
2019-04-16T09:00:46.400Z,23.08
2019-04-16T09:01:44.188Z,23.56
2019-04-16T09:02:44.168Z,23.06
2019-04-16T09:03:44.190Z,22.95
2019-04-16T09:04:44.164Z,22.56
2019-04-16T09:05:44.134Z,22.26
2019-04-16T09:06:46.384Z,22.53
2019-04-16T09:07:44.108Z,21.92
2019-04-16T09:08:44.119Z,21.78
2019-04-16T09:09:44.094Z,22.16
2019-04-16T09:10:44.828Z,21.80
2019-04-16T09:11:44.068Z,21.72
2019-04-16T09:12:47.581Z,21.89
2019-04-16T09:13:48.136Z,22.26
2019-04-16T09:14:44.014Z,22.34
2019-04-16T09:15:44.034Z,22.44
2019-04-16T09:16:44.036Z,22.89
2019-04-16T09:17:44.015Z,23.28
2019-04-16T09:18:47.086Z,22.96
2019-04-16T09:19:43.995Z,22.78
2019-04-16T09:20:43.990Z,22.61
2019-04-16T09:21:44.559Z,22.81
2019-04-16T09:22:49.072Z,22.73
2019-04-16T09:23:44.976Z,22.68
2019-04-16T09:24:43.951Z,22.67
2019-04-16T09:25:45.843Z,23.10
2019-04-16T09:26:43.939Z,23.48
2019-04-16T09:27:43.911Z,24.04
2019-04-16T09:28:43.942Z,23.92
2019-04-16T09:29:43.893Z,23.51
2019-04-16T09:30:46.608Z,23.42
2019-04-16T09:31:44.855Z,23.73
2019-04-16T09:32:43.867Z,23.14
2019-04-16T09:33:43.865Z,23.39
2019-04-16T09:34:43.802Z,23.62
2019-04-16T09:35:45.115Z,23.39
2019-04-16T09:36:43.820Z,23.02
2019-04-16T09:37:43.791Z,22.73
2019-04-16T09:38:45.545Z,22.43
2019-04-16T09:39:43.770Z,22.67
2019-04-16T09:40:43.777Z,22.98
2019-04-16T09:41:43.767Z,23.20
2019-04-16T09:42:43.758Z,22.28
2019-04-16T09:43:43.778Z,21.38
2019-04-16T09:44:43.741Z,20.95
2019-04-16T09:45:43.711Z,20.30
2019-04-16T09:46:51.136Z,20.40
2019-04-16T09:47:44.709Z,20.71
2019-04-16T09:48:43.688Z,20.95
2019-04-16T09:49:43.703Z,21.13
2019-04-16T09:50:47.557Z,21.07
2019-04-16T09:51:43.665Z,20.55
2019-04-16T09:52:43.663Z,20.27
2019-04-16T09:53:43.656Z,20.12
2019-04-16T09:54:44.485Z,20.37
2019-04-16T09:55:43.618Z,20.90
2019-04-16T09:56:43.605Z,20.53
2019-04-16T09:57:43.629Z,20.88
2019-04-16T09:58:43.619Z,21.38
2019-04-16T09:59:44.670Z,21.45
2019-04-16T10:00:43.615Z,21.58
2019-04-16T10:01:43.545Z,21.30
2019-04-16T10:02:43.573Z,21.45
2019-04-16T10:03:43.538Z,21.80
2019-04-16T10:04:43.540Z,22.14
2019-04-16T10:05:43.518Z,22.40
2019-04-16T10:06:43.509Z,22.88
2019-04-16T10:07:43.491Z,23.34
2019-04-16T10:08:44.938Z,23.20
2019-04-16T10:09:43.495Z,23.70
2019-04-16T10:10:43.477Z,24.00
2019-04-16T10:11:43.458Z,23.49
2019-04-16T10:12:43.473Z,22.77
2019-04-16T10:13:43.423Z,23.02
2019-04-16T10:14:43.482Z,22.73
2019-04-16T10:15:43.415Z,22.78
2019-04-16T10:16:43.434Z,22.63
2019-04-16T10:17:43.413Z,22.25
2019-04-16T10:18:43.412Z,22.68
2019-04-16T10:19:43.970Z,22.88
2019-04-16T10:20:43.377Z,22.41
2019-04-16T10:21:43.383Z,22.40
2019-04-16T10:22:43.392Z,22.53
2019-04-16T10:23:43.329Z,22.44
2019-04-16T10:24:43.359Z,22.16
2019-04-16T10:25:43.329Z,22.43
2019-04-16T10:26:43.319Z,22.95
2019-04-16T10:27:43.309Z,22.73
2019-04-16T10:28:43.303Z,22.70
2019-04-16T10:29:43.315Z,22.99
2019-04-16T10:30:43.296Z,22.77
2019-04-16T10:31:43.248Z,22.74
2019-04-16T10:32:43.253Z,22.92
2019-04-16T10:33:43.222Z,23.37
2019-04-16T10:34:43.254Z,23.16
2019-04-16T10:35:43.196Z,22.70
2019-04-16T10:36:43.245Z,23.25
2019-04-16T10:37:43.259Z,23.48
2019-04-16T10:38:43.186Z,23.63
2019-04-16T10:39:43.207Z,23.64
2019-04-16T10:40:43.232Z,23.29
2019-04-16T10:41:43.169Z,23.23
2019-04-16T10:42:43.131Z,23.29
2019-04-16T10:43:44.861Z,23.58
2019-04-16T10:44:43.124Z,23.45
2019-04-16T10:45:43.101Z,23.37
2019-04-16T10:46:43.074Z,23.44
2019-04-16T10:47:43.117Z,23.42
2019-04-16T10:48:43.103Z,23.54
2019-04-16T10:49:43.284Z,23.11
2019-04-16T10:50:43.068Z,22.76
2019-04-16T10:51:43.055Z,22.98
2019-04-16T10:52:43.240Z,23.07
2019-04-16T10:53:43.166Z,23.23
2019-04-16T10:54:43.352Z,22.99
2019-04-16T10:55:43.286Z,23.02
2019-04-16T10:56:43.019Z,23.28
2019-04-16T10:57:42.986Z,23.11
2019-04-16T10:58:42.956Z,23.21
2019-04-16T10:59:42.959Z,23.42
2019-04-16T11:00:42.940Z,23.66
2019-04-16T11:01:42.953Z,23.36
2019-04-16T11:02:42.923Z,23.55
2019-04-16T11:03:42.916Z,23.32
2019-04-16T11:04:43.913Z,23.51
2019-04-16T11:05:42.990Z,23.86
2019-04-16T11:06:42.982Z,24.36
2019-04-16T11:07:42.863Z,24.78
2019-04-16T11:08:42.869Z,24.00
2019-04-16T11:09:42.879Z,24.04
2019-04-16T11:10:42.865Z,23.64
2019-04-16T11:11:42.854Z,23.16
2019-04-16T11:12:42.809Z,23.40
2019-04-16T11:13:42.848Z,23.66
2019-04-16T11:14:42.777Z,24.07
2019-04-16T11:15:42.831Z,23.99
2019-04-16T11:16:42.794Z,23.48
2019-04-16T11:17:42.788Z,23.73
2019-04-16T11:18:42.749Z,23.96
2019-04-16T11:19:42.746Z,22.78
2019-04-16T11:20:42.750Z,22.71
2019-04-16T11:21:42.714Z,22.99
2019-04-16T11:22:42.730Z,23.26
2019-04-16T11:23:42.714Z,23.58
2019-04-16T11:24:42.703Z,24.16
2019-04-16T11:25:42.706Z,24.16
2019-04-16T11:26:44.394Z,24.26
2019-04-16T11:27:42.710Z,24.68
2019-04-16T11:28:42.784Z,24.82
2019-04-16T11:29:42.733Z,24.06
2019-04-16T11:30:42.709Z,22.92
2019-04-16T11:31:42.602Z,22.71
2019-04-16T11:32:42.653Z,22.40
2019-04-16T11:33:42.608Z,22.38
2019-04-16T11:34:42.585Z,22.44
2019-04-16T11:35:42.595Z,22.65
2019-04-16T11:36:42.583Z,22.89
2019-04-16T11:37:44.504Z,22.93
2019-04-16T11:38:42.551Z,22.86
2019-04-16T11:39:42.547Z,23.06
2019-04-16T11:40:42.581Z,23.48
2019-04-16T11:41:42.582Z,23.58
2019-04-16T11:42:42.548Z,23.48
2019-04-16T11:43:42.498Z,23.32
2019-04-16T11:44:42.483Z,23.44
2019-04-16T11:45:42.467Z,23.32
2019-04-16T11:46:42.505Z,23.25
2019-04-16T11:47:42.458Z,23.01
2019-04-16T11:48:42.487Z,22.30
2019-04-16T11:49:42.435Z,22.38
2019-04-16T11:50:42.429Z,22.58
2019-04-16T11:51:42.414Z,22.41
2019-04-16T11:52:42.456Z,22.38
2019-04-16T11:53:42.402Z,22.62
2019-04-16T11:54:46.770Z,22.58
2019-04-16T11:55:43.506Z,22.40
2019-04-16T11:56:42.355Z,22.33
2019-04-16T11:57:42.343Z,22.18
2019-04-16T11:58:42.307Z,21.92
2019-04-16T11:59:42.329Z,21.72
2019-04-16T12:00:42.359Z,21.48
2019-04-16T12:01:42.310Z,21.23
2019-04-16T12:02:42.279Z,21.28
2019-04-16T12:03:42.261Z,21.33
2019-04-16T12:04:42.276Z,21.28
2019-04-16T12:05:42.315Z,21.15
2019-04-16T12:06:42.287Z,21.14
2019-04-16T12:07:42.302Z,21.17
2019-04-16T12:08:42.248Z,21.03
2019-04-16T12:09:42.233Z,20.92
2019-04-16T12:10:42.234Z,20.67
2019-04-16T12:11:42.235Z,20.55
2019-04-16T12:12:42.197Z,20.58
2019-04-16T12:13:42.243Z,20.85
2019-04-16T12:14:43.530Z,21.14
2019-04-16T12:15:42.233Z,21.41
2019-04-16T12:16:42.165Z,21.54
2019-04-16T12:17:42.231Z,21.35
2019-04-16T12:18:42.165Z,21.33
2019-04-16T12:19:44.826Z,21.32
2019-04-16T12:20:42.096Z,21.22
2019-04-16T12:21:42.185Z,21.07
2019-04-16T12:22:42.153Z,21.01
2019-04-16T12:23:42.222Z,20.96
2019-04-16T12:24:42.042Z,20.49
2019-04-16T12:25:42.030Z,20.27
2019-04-16T12:26:42.077Z,20.53
2019-04-16T12:27:42.041Z,20.58
2019-04-16T12:28:43.204Z,20.67
2019-04-16T12:29:42.004Z,20.66
2019-04-16T12:30:42.010Z,20.52
2019-04-16T12:31:42.036Z,20.67
2019-04-16T12:32:41.982Z,20.83
2019-04-16T12:33:41.966Z,20.77
2019-04-16T12:34:41.970Z,20.52
2019-04-16T12:35:45.220Z,20.26
2019-04-16T12:36:41.942Z,19.94
2019-04-16T12:37:41.909Z,19.85
2019-04-16T12:38:41.957Z,19.77
2019-04-16T12:39:42.039Z,19.66
2019-04-16T12:40:42.284Z,19.48
2019-04-16T12:41:41.922Z,19.38
2019-04-16T12:42:42.503Z,19.26
2019-04-16T12:43:41.908Z,19.22
2019-04-16T12:44:45.607Z,19.42
2019-04-16T12:45:41.837Z,19.60
2019-04-16T12:46:41.870Z,19.60
2019-04-16T12:47:41.792Z,19.48
2019-04-16T12:48:41.796Z,19.42
2019-04-16T12:49:41.773Z,19.39
2019-04-16T12:50:41.788Z,19.39
2019-04-16T12:51:41.829Z,19.41
2019-04-16T12:52:41.788Z,19.47
2019-04-16T12:53:41.751Z,19.62
2019-04-16T12:54:41.754Z,19.82
2019-04-16T12:55:41.734Z,19.79
2019-04-16T12:56:41.724Z,19.84
2019-04-16T12:57:46.915Z,19.77
2019-04-16T12:58:42.679Z,19.78
2019-04-16T12:59:41.658Z,19.49
2019-04-16T13:00:41.657Z,19.55
2019-04-16T13:01:41.710Z,19.70
2019-04-16T13:02:41.858Z,19.74